Pagrindinis puslapis
METAR-TAF:

METAR-TAF

Oro uostai :

Hōfu, Japonija

platuma: 34-02N, ilguma: 131-33E, Aukštis: 2 m

Dabartinis oras

Ataskaita buvo paskelbta 3 valandos ir 2 minutes, ne 21:14 UTC
Vėjas 2 kt nuo kintamojo kryptimis
Temperatūra 6°C
Drėgmė 87%
Slėgis 1023 hPa
Matomumas 10 km arba daugiau
Mažai debesys ne aukštis 3000 ft
Su prošvaistėmis ne aukštis 10000 ft

METAR: RJOF 092114Z VRB02KT 9999 FEW030 BKN100 06/04 Q1023 RMK 1CU030 5AC100 A3023

Laikas: 09:16 (00:16 UTC)


TAF: trūkstamas

Orai ataskaitas ir orų prognozės (METAR, TAF).

turimą stotys yra geltonos ir raudonos taškus žemėlapyje.

Perkelti pele per norėdami pamatyti stoties vardą.

Tada spustelėkite, norėdami matyti oro stebėjimo ir prognozės.

Norėdami pakeisti žemėlapį: spustelėkite ant žalios mygtukų su juodo kryžiaus žemyn,; žalią mygtuką su brūkšneliu, jei norite nutolinti; arba žalių rodyklių gretimoms žemėlapius.


METAR-TAF: